Tim Quigg — WDB6570 — position and weather

sailwx.info

Track history (hours):
 
Tides and Currents Weather Stations Pressure Air Temp Water Temp Dewpoint Dewpoint Depression Visibility Wind Speed Wind Dir Waves Ship Positions

Tim Quigg

Owner: Harley Marine Services, Inc, Seattle, WA. More information available from US FCC via Universal Licensing System and Coast Guard Vessel Documentation Center.

Last reported at 2016-May-26 15:33 UTC. Time now 2016-May-28 02:08 UTC.
Position N 33°46' W 118°16'.

Type: Tug. MMSI: 366926740.

Date/timePositionNaut miles runAvg speedWind from/ knotsBaromVisibWave heightAir tempDewpointWater temp
2016-May-26 15:33N 33°46' W 118°16'3 2.2
2016-May-26 14:21N 33°45' W 118°13'2 2.1
2016-May-26 13:33N 33°46' W 118°14'1 0.1
2016-May-25 22:32N 33°45' W 118°14'1 0.5
2016-May-25 20:27N 33°45' W 118°13'2 2.3
2016-May-25 19:33N 33°46' W 118°15'2 2.0
2016-May-25 18:33N 33°44' W 118°16'0 0.0
2016-May-25 05:20N 33°44' W 118°16'2 2.5
2016-May-25 04:27N 33°44' W 118°13'3 1.4
2016-May-25 02:27N 33°45' W 118°16'2 0.8
2016-May-24 23:28N 33°43' W 118°15'2 2.7
2016-May-24 22:33N 33°45' W 118°13'  
2016-May-19 16:14N 33°43' W 118°14'7 9.7
2016-May-19 15:34N 33°44' W 118°06'1 0.7
2016-May-19 14:34N 33°44' W 118°07'5 4.8
2016-May-19 13:33N 33°45' W 118°13'1 1.0
2016-May-19 12:33N 33°45' W 118°14'2 2.1
2016-May-19 11:30N 33°44' W 118°12'3 3.4
2016-May-19 10:33N 33°43' W 118°16'3 0.4
2016-May-19 01:19N 33°46' W 118°13'2 2.5
2016-May-19 00:32N 33°44' W 118°13'1 0.2
2016-May-18 15:33N 33°45' W 118°14'1 1.2
2016-May-18 14:27N 33°45' W 118°12'0 0.4
2016-May-18 13:24N 33°45' W 118°13'2 2.7
2016-May-18 12:31N 33°45' W 118°16'2 0.1
2016-May-17 13:25N 33°44' W 118°13'2 1.7
2016-May-17 12:16N 33°46' W 118°13'2 2.9
2016-May-17 11:33N 33°44' W 118°12'3 0.2
2016-May-16 23:18N 33°46' W 118°15'  
Track history (hours):
 
Tides and Currents Weather Stations Pressure Air Temp Water Temp Dewpoint Dewpoint Depression Visibility Wind Speed Wind Dir Waves Ship Positions

Tim Quigg

Owner: Harley Marine Services, Inc, Seattle, WA. More information available from US FCC via Universal Licensing System and Coast Guard Vessel Documentation Center.

Last reported at 2016-May-26 15:33 UTC. Time now 2016-May-28 02:08 UTC.
Position N 33°46' W 118°16'.

Type: Tug. MMSI: 366926740.

Date/timePositionNaut miles runAvg speedWind from/ knotsBaromVisibWave heightAir tempDewpointWater temp
2016-May-26 15:33N 33°46' W 118°16'3 2.2
2016-May-26 14:21N 33°45' W 118°13'2 2.1
2016-May-26 13:33N 33°46' W 118°14'1 0.1
2016-May-25 22:32N 33°45' W 118°14'1 0.5
2016-May-25 20:27N 33°45' W 118°13'2 2.3
2016-May-25 19:33N 33°46' W 118°15'2 2.0
2016-May-25 18:33N 33°44' W 118°16'0 0.0
2016-May-25 05:20N 33°44' W 118°16'2 2.5
2016-May-25 04:27N 33°44' W 118°13'3 1.4
2016-May-25 02:27N 33°45' W 118°16'2 0.8
2016-May-24 23:28N 33°43' W 118°15'2 2.7
2016-May-24 22:33N 33°45' W 118°13'  
2016-May-19 16:14N 33°43' W 118°14'7 9.7
2016-May-19 15:34N 33°44' W 118°06'1 0.7
2016-May-19 14:34N 33°44' W 118°07'5 4.8
2016-May-19 13:33N 33°45' W 118°13'1 1.0
2016-May-19 12:33N 33°45' W 118°14'2 2.1
2016-May-19 11:30N 33°44' W 118°12'3 3.4
2016-May-19 10:33N 33°43' W 118°16'3 0.4
2016-May-19 01:19N 33°46' W 118°13'2 2.5
2016-May-19 00:32N 33°44' W 118°13'1 0.2
2016-May-18 15:33N 33°45' W 118°14'1 1.2
2016-May-18 14:27N 33°45' W 118°12'0 0.4
2016-May-18 13:24N 33°45' W 118°13'2 2.7
2016-May-18 12:31N 33°45' W 118°16'2 0.1
2016-May-17 13:25N 33°44' W 118°13'2 1.7
2016-May-17 12:16N 33°46' W 118°13'2 2.9
2016-May-17 11:33N 33°44' W 118°12'3 0.2
2016-May-16 23:18N 33°46' W 118°15'  

Dump ship's entire track history